Time;durP1;ratioP1;P1;durP2;ratioP2;P2;SDS_P1;SDS_P2;PMS_P1;PMS_P2;Temp;Humidity;BMP_temperature;BMP_pressure;BME280_temperature;BME280_humidity;BME280_pressure;Samples;Min_cycle;Max_cycle;Signal;HPM_P1;HPM_P2
2022/09/30 03:46:55;;;;;;;5.50;5.00;;;7.50;99.90;;;;;;4919465;28;20489;-93
2022/09/30 03:49:31;;;;;;;4.97;4.57;;;7.50;99.90;;;;;;4932732;28;20524;-95
2022/09/30 03:51:59;;;;;;;4.87;4.50;;;7.50;99.90;;;;;;4957806;28;20439;-95
2022/09/30 03:54:25;;;;;;;7.50;5.23;;;7.50;99.90;;;;;;4947475;28;21149;-95
2022/09/30 03:56:54;;;;;;;6.43;5.10;;;7.50;99.90;;;;;;4950099;28;20465;-96
2022/09/30 03:59:27;;;;;;;4.93;4.50;;;7.50;99.90;;;;;;4954367;28;20425;-96
2022/09/30 04:02:25;;;;;;;6.40;5.80;;;7.50;99.90;;;;;;4968808;28;20546;-96
2022/09/30 05:43:28;;;;;;;23.07;10.87;;;6.90;99.90;;;;;;4932249;28;20499;-94
2022/09/30 05:45:55;;;;;;;24.67;6.30;;;6.90;99.90;;;;;;4925160;28;20562;-95
2022/09/30 05:48:23;;;;;;;27.07;7.60;;;6.80;99.90;;;;;;4924401;29;20516;-94
2022/09/30 05:50:52;;;;;;;13.93;7.30;;;6.80;99.90;;;;;;4919383;28;20446;-96
2022/09/30 05:53:18;;;;;;;19.13;6.53;;;6.60;99.90;;;;;;4920417;29;20540;-95
2022/09/30 05:55:47;;;;;;;8.93;6.57;;;6.70;99.90;;;;;;4914711;28;20439;-95
2022/09/30 05:58:17;;;;;;;9.00;7.10;;;6.70;99.90;;;;;;4917626;28;20191;-96
2022/09/30 06:00:52;;;;;;;13.90;6.97;;;6.80;99.90;;;;;;4934191;28;20461;-96
2022/09/30 06:37:51;;;;;;;7.77;5.87;;;7.30;99.90;;;;;;716030;23;20771;-95
2022/09/30 06:40:37;;;;;;;7.27;6.57;;;7.50;99.90;;;;;;4913758;29;20468;-96
2022/09/30 06:43:03;;;;;;;7.40;6.50;;;7.70;99.90;;;;;;4897569;29;20511;-96
2022/09/30 06:45:31;;;;;;;7.83;7.03;;;7.70;99.90;;;;;;4910105;29;20468;-96
2022/09/30 06:48:02;;;;;;;8.67;7.20;;;7.80;99.90;;;;;;4901483;29;20476;-96
2022/09/30 06:50:32;;;;;;;11.53;8.33;;;7.70;99.90;;;;;;4928767;29;20487;-96
2022/09/30 06:53:10;;;;;;;9.20;7.63;;;7.80;99.90;;;;;;4946267;28;20452;-96
2022/09/30 06:55:38;;;;;;;8.53;7.63;;;8.00;99.90;;;;;;4936351;29;20424;-96
2022/09/30 06:58:13;;;;;;;9.13;6.80;;;8.10;99.90;;;;;;4914697;29;20452;-96
2022/09/30 07:00:39;;;;;;;8.10;6.60;;;8.20;99.90;;;;;;4928214;29;20477;-96
2022/09/30 07:03:15;;;;;;;7.30;6.30;;;8.40;99.90;;;;;;4920147;29;20476;-96
2022/09/30 07:05:41;;;;;;;6.80;6.20;;;8.50;99.90;;;;;;4947269;29;20180;-96
2022/09/30 07:08:09;;;;;;;6.63;6.03;;;8.50;99.90;;;;;;4921363;29;20479;-96
2022/09/30 07:10:38;;;;;;;12.17;6.70;;;8.70;99.90;;;;;;4930391;29;20184;-95
2022/09/30 07:13:05;;;;;;;7.70;5.87;;;8.70;99.90;;;;;;4929520;29;20460;-96
2022/09/30 07:15:31;;;;;;;8.47;6.27;;;8.70;99.90;;;;;;4925557;29;20451;-96
2022/09/30 07:31:20;;;;;;;6.83;6.23;;;9.10;99.90;;;;;;4926337;29;20482;-96
2022/09/30 08:20:22;;;;;;;11.40;10.30;;;10.40;99.90;;;;;;4189833;26;20476;-88
2022/09/30 08:22:51;;;;;;;10.90;9.90;;;10.70;99.90;;;;;;4961603;28;20473;-87
2022/09/30 08:25:17;;;;;;;12.03;10.83;;;10.90;99.90;;;;;;4948213;28;20182;-88
2022/09/30 08:27:42;;;;;;;14.80;12.20;;;10.80;99.90;;;;;;4954537;28;20454;-90
2022/09/30 08:30:08;;;;;;;12.63;11.37;;;10.60;99.90;;;;;;4948840;28;20189;-89
2022/09/30 08:32:34;;;;;;;12.33;11.03;;;10.70;99.90;;;;;;4952504;28;20547;-88
2022/09/30 08:34:59;;;;;;;12.83;11.63;;;10.80;99.90;;;;;;4946605;28;20446;-88
2022/09/30 08:37:25;;;;;;;12.50;11.30;;;10.90;99.90;;;;;;4948962;28;20675;-85
2022/09/30 08:39:51;;;;;;;12.60;11.40;;;10.90;99.90;;;;;;4947754;28;20553;-86
2022/09/30 08:42:40;;;;;;;12.77;11.47;;;11.00;99.90;;;;;;4946508;28;20838;-87
2022/09/30 08:45:35;;;;;;;12.30;11.10;;;11.20;99.90;;;;;;4955153;28;20277;-87
2022/09/30 08:48:04;;;;;;;13.80;12.40;;;11.50;99.90;;;;;;4962826;28;20454;-86
2022/09/30 08:50:33;;;;;;;12.60;11.30;;;11.50;99.90;;;;;;4947803;28;20556;-86
2022/09/30 08:53:04;;;;;;;12.10;10.90;;;11.40;99.90;;;;;;4956643;28;20433;-85
2022/09/30 08:55:42;;;;;;;11.13;10.03;;;11.70;99.90;;;;;;4949522;28;20726;-86
2022/09/30 08:58:26;;;;;;;11.60;10.40;;;12.10;99.90;;;;;;4956259;28;20511;-85
2022/09/30 09:00:56;;;;;;;12.57;11.37;;;12.50;99.90;;;;;;4954656;28;20562;-86
2022/09/30 09:03:27;;;;;;;13.30;12.07;;;12.60;99.90;;;;;;4955170;28;20477;-86
2022/09/30 09:06:02;;;;;;;11.67;10.67;;;12.80;99.90;;;;;;4954676;28;20442;-86
2022/09/30 09:08:55;;;;;;;12.30;11.13;;;12.80;99.90;;;;;;4959563;28;21125;-85
2022/09/30 09:11:52;;;;;;;11.53;10.43;;;12.90;99.90;;;;;;4952937;28;20529;-86
2022/09/30 09:14:36;;;;;;;12.43;11.33;;;13.40;99.90;;;;;;4953872;28;20458;-86
2022/09/30 09:17:27;;;;;;;12.60;11.40;;;13.70;99.90;;;;;;4955667;28;20474;-86
2022/09/30 09:20:11;;;;;;;11.53;10.43;;;13.90;99.90;;;;;;4950742;28;21039;-85
2022/09/30 09:22:52;;;;;;;12.47;11.27;;;14.40;99.90;;;;;;4948701;28;21067;-96
2022/09/30 09:25:28;;;;;;;11.47;10.37;;;14.90;99.90;;;;;;4954319;28;21316;-94
2022/09/30 09:28:43;;;;;;;11.33;10.20;;;15.00;99.90;;;;;;4952733;28;20462;-95
2022/09/30 09:31:16;;;;;;;11.73;10.73;;;15.10;99.90;;;;;;4955333;28;20446;-93
2022/09/30 09:33:42;;;;;;;10.40;9.40;;;14.90;99.90;;;;;;4957474;28;20491;-95
2022/09/30 09:36:10;;;;;;;11.73;10.53;;;14.70;99.90;;;;;;4953188;28;20499;-94
2022/09/30 09:39:06;;;;;;;11.47;10.37;;;14.50;99.90;;;;;;4969327;28;20442;-94
2022/09/30 09:41:58;;;;;;;13.30;12.10;;;14.50;99.90;;;;;;4958718;28;22445;-96
2022/09/30 09:44:32;;;;;;;12.00;11.00;;;14.70;99.90;;;;;;4959818;28;20437;-96
2022/09/30 09:47:14;;;;;;;10.90;9.80;;;14.80;99.90;;;;;;4962502;28;20436;-96
2022/09/30 09:49:51;;;;;;;13.43;11.30;;;15.10;99.90;;;;;;4963384;28;20544;-96
2022/09/30 09:52:51;;;;;;;12.00;10.90;;;15.20;99.90;;;;;;4966405;28;20430;-96
2022/09/30 09:55:23;;;;;;;12.70;11.47;;;15.20;99.90;;;;;;4974751;28;20439;-93
2022/09/30 09:58:04;;;;;;;13.70;11.20;;;15.30;99.90;;;;;;4972560;28;20442;-96
2022/09/30 10:03:17;;;;;;;11.17;10.17;;;15.00;99.90;;;;;;4953653;28;20488;-96
2022/09/30 10:05:46;;;;;;;10.50;9.50;;;15.20;99.90;;;;;;4958673;28;20481;-96
2022/09/30 10:08:29;;;;;;;8.23;7.43;;;15.50;99.90;;;;;;4950315;28;20515;-96
2022/09/30 10:11:21;;;;;;;10.57;9.47;;;16.10;99.90;;;;;;4958022;28;20525;-95
2022/09/30 10:13:49;;;;;;;9.90;9.00;;;16.20;99.90;;;;;;4955518;28;20460;-96
2022/09/30 10:16:31;;;;;;;9.50;8.70;;;16.20;99.90;;;;;;4961276;28;20506;-96
2022/09/30 10:19:21;;;;;;;9.40;8.50;;;16.50;99.90;;;;;;4959648;28;20464;-95
2022/09/30 10:21:46;;;;;;;9.30;8.50;;;17.00;99.90;;;;;;4954178;28;20966;-96
2022/09/30 10:24:39;;;;;;;9.20;8.50;;;16.70;99.90;;;;;;4932761;28;20494;-94
2022/09/30 10:27:29;;;;;;;9.23;8.43;;;16.50;99.90;;;;;;4944339;28;20198;-95
2022/09/30 10:29:55;;;;;;;9.43;8.40;;;16.30;99.90;;;;;;4942428;28;20450;-95
2022/09/30 10:32:22;;;;;;;8.67;7.97;;;16.00;99.90;;;;;;4943868;28;20444;-96
2022/09/30 10:34:58;;;;;;;11.50;10.40;;;15.60;99.90;;;;;;4944886;28;20281;-95
2022/09/30 10:37:40;;;;;;;9.53;8.73;;;15.70;99.90;;;;;;4949019;28;20481;-96
2022/09/30 10:40:26;;;;;;;10.00;9.03;;;15.70;99.90;;;;;;4953590;28;20549;-96
2022/09/30 10:42:53;;;;;;;7.63;6.73;;;15.80;99.90;;;;;;4951328;28;20577;-96
2022/09/30 10:45:28;;;;;;;8.27;7.57;;;16.10;99.90;;;;;;4948502;28;20445;-96
2022/09/30 10:47:55;;;;;;;7.80;7.10;;;16.40;99.90;;;;;;4955491;28;20457;-96
2022/09/30 10:50:26;;;;;;;8.23;7.40;;;16.60;99.90;;;;;;4955974;28;20540;-96
2022/09/30 10:53:10;;;;;;;7.07;6.20;;;16.80;99.90;;;;;;4960323;28;22201;-96
2022/09/30 10:55:43;;;;;;;8.37;7.57;;;17.00;99.90;;;;;;4955856;28;20513;-96
2022/09/30 10:58:55;;;;;;;7.03;6.43;;;16.50;99.90;;;;;;4957184;28;20445;-96
2022/09/30 11:01:28;;;;;;;6.37;5.83;;;16.50;99.90;;;;;;4964332;28;20438;-93
2022/09/30 11:04:18;;;;;;;5.10;4.60;;;16.40;99.90;;;;;;4947914;28;20847;-93
2022/09/30 11:06:47;;;;;;;4.00;3.70;;;16.80;99.90;;;;;;4941712;28;20453;-93
2022/09/30 11:09:32;;;;;;;4.03;3.73;;;17.20;99.90;;;;;;4936184;28;20456;-86
2022/09/30 11:12:38;;;;;;;3.70;3.13;;;17.00;99.80;;;;;;4928180;28;20548;-85
2022/09/30 11:15:17;;;;;;;2.40;2.20;;;17.50;98.90;;;;;;4923922;28;20793;-86
2022/09/30 11:17:49;;;;;;;7.03;4.13;;;17.80;96.80;;;;;;4939354;28;20442;-86
2022/09/30 11:20:29;;;;;;;4.27;3.87;;;17.90;96.70;;;;;;4937348;28;21006;-86
2022/09/30 11:23:04;;;;;;;3.33;2.50;;;18.00;94.90;;;;;;4939470;28;20490;-86
2022/09/30 11:25:46;;;;;;;2.37;2.17;;;17.90;94.90;;;;;;4928636;28;20596;-85
2022/09/30 11:28:31;;;;;;;2.87;2.47;;;18.00;93.90;;;;;;4938274;28;20446;-86
2022/09/30 11:31:14;;;;;;;2.73;2.53;;;18.10;94.50;;;;;;4931797;28;20842;-84
2022/09/30 11:33:46;;;;;;;3.77;2.73;;;18.30;93.60;;;;;;4933500;28;20438;-85
2022/09/30 11:36:43;;;;;;;2.20;2.00;;;18.40;93.10;;;;;;4935374;28;21185;-84
2022/09/30 11:39:23;;;;;;;3.27;2.50;;;18.20;92.70;;;;;;4938745;28;20496;-85
2022/09/30 11:42:00;;;;;;;2.20;2.00;;;18.20;94.70;;;;;;4936589;28;20539;-89
2022/09/30 11:44:35;;;;;;;3.17;2.70;;;18.00;93.40;;;;;;4939300;28;20935;-88
2022/09/30 11:47:20;;;;;;;3.03;2.83;;;17.90;92.80;;;;;;4953994;28;20445;-88
2022/09/30 11:49:52;;;;;;;3.17;2.87;;;18.10;93.40;;;;;;4941669;28;20450;-87
2022/09/30 11:52:38;;;;;;;3.23;2.97;;;18.40;92.70;;;;;;4941333;28;20446;-88
2022/09/30 11:55:29;;;;;;;3.77;3.23;;;18.30;93.30;;;;;;4895967;28;20437;-93
2022/09/30 11:58:05;;;;;;;4.00;3.27;;;18.10;93.60;;;;;;4947507;28;20473;-93
2022/09/30 12:00:35;;;;;;;4.23;3.60;;;18.10;93.00;;;;;;4942256;28;20441;-90
2022/09/30 12:03:10;;;;;;;4.83;3.17;;;18.50;94.10;;;;;;4937475;28;20484;-89
2022/09/30 12:05:44;;;;;;;4.03;3.63;;;18.40;94.60;;;;;;4938186;28;20472;-91
2022/09/30 12:12:05;;;;;;;2.80;2.57;;;18.80;93.00;;;;;;4941581;28;20545;-92
2022/09/30 12:14:55;;;;;;;3.87;2.43;;;18.80;92.10;;;;;;4941841;28;20438;-92
2022/09/30 12:17:37;;;;;;;2.97;2.67;;;18.70;92.80;;;;;;4942803;28;20441;-93
2022/09/30 12:20:30;;;;;;;3.10;2.90;;;18.70;93.90;;;;;;4944219;28;21469;-91
2022/09/30 12:23:21;;;;;;;3.50;3.20;;;18.80;93.60;;;;;;4947565;28;20474;-91
2022/09/30 12:26:02;;;;;;;2.80;2.50;;;18.90;91.80;;;;;;4940977;28;20452;-92
2022/09/30 12:32:15;;;;;;;4.17;3.13;;;18.90;91.90;;;;;;4963549;28;20557;-91
2022/09/30 12:34:50;;;;;;;2.80;2.50;;;18.70;94.70;;;;;;4954981;28;20446;-92
2022/09/30 12:37:28;;;;;;;3.57;2.83;;;18.80;89.90;;;;;;4943176;28;20496;-90
2022/09/30 12:40:19;;;;;;;2.23;2.03;;;19.20;91.20;;;;;;4936199;28;20895;-89
2022/09/30 12:43:23;;;;;;;3.40;2.23;;;19.20;85.40;;;;;;4939798;28;21048;-89
2022/09/30 12:45:57;;;;;;;3.00;2.40;;;19.50;90.20;;;;;;4934235;28;21320;-89
2022/09/30 12:48:42;;;;;;;2.20;1.90;;;19.50;90.40;;;;;;4943068;28;20949;-89
2022/09/30 12:51:08;;;;;;;2.20;1.80;;;19.30;87.10;;;;;;4946014;28;20451;-89
2022/09/30 12:53:37;;;;;;;3.20;2.30;;;19.60;88.90;;;;;;4946687;28;20441;-88
2022/09/30 12:56:11;;;;;;;2.97;2.40;;;19.50;89.30;;;;;;4943441;28;20448;-88
2022/09/30 12:58:46;;;;;;;2.77;2.50;;;19.50;89.50;;;;;;4944327;28;20507;-89
2022/09/30 13:01:16;;;;;;;2.57;2.47;;;19.40;89.60;;;;;;4943768;28;20446;-88
2022/09/30 13:03:52;;;;;;;7.90;2.70;;;19.20;90.60;;;;;;4943592;28;20491;-88
2022/09/30 13:06:21;;;;;;;2.90;2.60;;;18.90;87.10;;;;;;4944713;28;20981;-87
2022/09/30 13:08:56;;;;;;;3.43;2.60;;;18.30;89.90;;;;;;4943138;28;22405;-88
2022/09/30 13:11:43;;;;;;;2.00;1.80;;;18.10;91.00;;;;;;4939927;28;20507;-87
2022/09/30 13:14:33;;;;;;;1.63;1.53;;;18.70;85.20;;;;;;4937945;28;20445;-88
2022/09/30 13:17:25;;;;;;;1.70;1.60;;;19.00;81.70;;;;;;4935074;28;20469;-91
2022/09/30 13:20:07;;;;;;;1.67;1.57;;;18.80;79.30;;;;;;4938165;28;21216;-92
2022/09/30 13:22:39;;;;;;;2.10;1.90;;;19.10;83.00;;;;;;4927364;28;20499;-91
2022/09/30 13:25:13;;;;;;;1.70;1.60;;;19.40;82.50;;;;;;4948335;28;20444;-91
2022/09/30 13:27:52;;;;;;;1.90;1.77;;;19.00;84.10;;;;;;4945414;28;20991;-90
2022/09/30 13:30:17;;;;;;;1.70;1.60;;;18.70;82.40;;;;;;4944178;28;21195;-88
2022/09/30 13:32:46;;;;;;;2.67;1.83;;;18.70;83.40;;;;;;4943240;28;20473;-90
2022/09/30 13:35:51;;;;;;;2.13;1.93;;;18.30;86.90;;;;;;4938709;28;20505;-91
2022/09/30 13:38:35;;;;;;;1.93;1.83;;;18.40;87.20;;;;;;4950933;28;20452;-90
2022/09/30 13:41:28;;;;;;;2.10;1.90;;;19.00;86.00;;;;;;4937252;28;21193;-91
2022/09/30 13:44:34;;;;;;;2.30;2.10;;;19.70;84.70;;;;;;4931003;28;20509;-92
2022/09/30 13:47:22;;;;;;;2.20;2.00;;;19.60;89.90;;;;;;4934755;28;20560;-91
2022/09/30 13:50:17;;;;;;;1.70;1.60;;;19.60;90.50;;;;;;4946635;28;20453;-90
2022/09/30 13:53:39;;;;;;;2.47;1.70;;;19.80;87.20;;;;;;4927743;28;20477;-91
2022/09/30 13:56:38;;;;;;;1.87;1.77;;;19.90;86.50;;;;;;4940423;28;20456;-90
2022/09/30 13:59:35;;;;;;;1.80;1.70;;;19.50;83.40;;;;;;4936682;28;20434;-89
2022/09/30 14:02:38;;;;;;;1.90;1.80;;;19.20;83.80;;;;;;4954519;28;20446;-88
2022/09/30 14:05:24;;;;;;;2.50;1.70;;;19.50;90.60;;;;;;4946550;28;20489;-90
2022/09/30 14:07:52;;;;;;;1.73;1.63;;;20.00;85.40;;;;;;4946945;28;20496;-89
2022/09/30 14:10:42;;;;;;;3.00;1.93;;;20.30;86.90;;;;;;4943536;28;20501;-90
2022/09/30 14:13:38;;;;;;;1.73;1.60;;;20.80;85.90;;;;;;4947177;28;20441;-91
2022/09/30 14:16:23;;;;;;;2.03;1.90;;;21.60;83.80;;;;;;4938504;28;20474;-90
2022/09/30 14:19:39;;;;;;;3.17;1.73;;;22.70;83.00;;;;;;4949167;28;20450;-94
2022/09/30 14:22:07;;;;;;;1.73;1.63;;;22.60;80.50;;;;;;4951064;28;20473;-96
2022/09/30 14:24:35;;;;;;;1.63;1.53;;;21.50;80.90;;;;;;4969514;28;20473;-96
2022/09/30 14:27:22;;;;;;;2.13;1.70;;;21.20;81.60;;;;;;4972253;28;20441;-96
2022/09/30 14:30:03;;;;;;;1.60;1.50;;;21.40;83.10;;;;;;4970672;28;20453;-96
2022/09/30 14:32:39;;;;;;;1.63;1.53;;;20.60;82.90;;;;;;4968821;28;20497;-91
2022/09/30 14:35:08;;;;;;;1.87;1.77;;;19.60;86.50;;;;;;4967095;28;20449;-93
2022/09/30 14:37:46;;;;;;;3.53;2.07;;;19.10;86.60;;;;;;4966556;28;21255;-95
2022/09/30 14:40:19;;;;;;;3.10;1.90;;;19.00;87.20;;;;;;4955689;28;20491;-95
2022/09/30 14:43:04;;;;;;;2.27;1.83;;;19.40;86.90;;;;;;4960531;28;20653;-94
2022/09/30 14:45:41;;;;;;;2.00;1.30;;;19.50;84.70;;;;;;4963772;28;20472;-95
2022/09/30 14:48:49;;;;;;;1.70;1.50;;;19.90;85.30;;;;;;4975562;28;20422;-96
2022/09/30 15:04:31;;;;;;;1.93;1.83;;;19.60;86.50;;;;;;1246632;26;20741;-92
2022/09/30 15:07:02;;;;;;;1.40;1.20;;;19.20;87.20;;;;;;4976528;28;20440;-93
2022/09/30 15:09:31;;;;;;;1.87;1.77;;;18.90;89.60;;;;;;4961189;28;20811;-93
2022/09/30 15:12:06;;;;;;;2.17;1.97;;;18.60;89.50;;;;;;4972235;28;20448;-93
2022/09/30 15:14:32;;;;;;;2.30;1.80;;;18.50;90.40;;;;;;4970242;28;20447;-93
2022/09/30 15:16:58;;;;;;;2.20;1.43;;;18.30;89.70;;;;;;4969781;28;20796;-93
2022/09/30 15:19:42;;;;;;;2.00;1.40;;;19.10;89.10;;;;;;4970651;28;20177;-96
2022/09/30 15:22:12;;;;;;;1.57;1.20;;;19.70;88.20;;;;;;4973398;28;20440;-95
2022/09/30 15:24:40;;;;;;;2.30;1.57;;;20.20;84.00;;;;;;4944396;28;21778;-93
2022/09/30 15:27:18;;;;;;;1.63;1.40;;;20.40;84.10;;;;;;4967840;28;20978;-93
2022/09/30 15:29:59;;;;;;;1.97;1.77;;;20.00;82.50;;;;;;4960951;28;20444;-93
2022/09/30 15:32:31;;;;;;;2.10;1.70;;;19.90;83.70;;;;;;4976370;28;20440;-93
2022/09/30 15:35:04;;;;;;;2.93;1.40;;;19.80;84.40;;;;;;4961628;28;20450;-91
2022/09/30 15:37:32;;;;;;;2.03;1.40;;;19.80;84.50;;;;;;4965885;28;20457;-89
2022/09/30 15:43:05;;;;;;;2.30;1.33;;;18.70;89.40;;;;;;4956618;28;20519;-92
2022/09/30 15:45:40;;;;;;;1.60;1.50;;;18.20;88.90;;;;;;4958471;28;21791;-87
2022/09/30 15:48:15;;;;;;;1.90;1.50;;;17.50;88.30;;;;;;4952094;28;21381;-89
2022/09/30 15:50:54;;;;;;;1.63;1.47;;;17.10;91.70;;;;;;4958395;28;20444;-83
2022/09/30 15:53:25;;;;;;;2.17;1.40;;;16.70;92.80;;;;;;4951584;28;20469;-85
2022/09/30 15:55:55;;;;;;;1.50;1.40;;;16.70;92.40;;;;;;4958792;28;20445;-81
2022/09/30 15:58:37;;;;;;;1.60;1.50;;;16.50;93.50;;;;;;4950883;28;20476;-86
2022/09/30 16:01:25;;;;;;;2.10;1.90;;;16.10;94.80;;;;;;4948368;28;20774;-84
2022/09/30 16:04:19;;;;;;;1.40;1.30;;;16.00;94.90;;;;;;4950889;28;21052;-95
2022/09/30 16:07:08;;;;;;;2.47;1.90;;;15.80;95.90;;;;;;4953444;28;20556;-87
2022/09/30 16:10:07;;;;;;;2.30;1.87;;;15.60;96.30;;;;;;4945877;28;20504;-88
2022/09/30 16:12:34;;;;;;;3.50;1.80;;;15.50;97.80;;;;;;4952924;28;20448;-86
2022/09/30 16:15:13;;;;;;;1.30;1.30;;;15.30;98.00;;;;;;4958285;28;21042;-87
2022/09/30 16:17:45;;;;;;;1.97;1.10;;;15.20;99.20;;;;;;4952935;28;20457;-86
2022/09/30 16:20:14;;;;;;;3.47;1.67;;;15.10;98.90;;;;;;4948629;28;20445;-86
2022/09/30 16:22:40;;;;;;;3.30;1.33;;;15.00;98.10;;;;;;4961552;28;20532;-86
2022/09/30 16:25:28;;;;;;;1.53;1.43;;;15.00;98.30;;;;;;4958533;28;20460;-86
2022/09/30 16:28:11;;;;;;;1.67;1.30;;;15.00;98.10;;;;;;4967927;28;20185;-86
2022/09/30 16:30:48;;;;;;;1.37;1.27;;;15.00;99.30;;;;;;4954273;28;20461;-87
2022/09/30 16:33:17;;;;;;;1.40;1.30;;;15.00;99.90;;;;;;4960355;28;20466;-88
2022/09/30 16:35:46;;;;;;;1.60;1.50;;;15.00;99.90;;;;;;4956713;28;21268;-87
2022/09/30 16:38:13;;;;;;;2.50;1.40;;;14.80;99.90;;;;;;4969063;28;20451;-87
2022/09/30 16:40:39;;;;;;;1.87;1.57;;;14.70;99.90;;;;;;4969728;28;20442;-86
2022/09/30 16:43:05;;;;;;;7.10;1.67;;;14.50;99.90;;;;;;4979397;28;20464;-85
2022/09/30 16:45:32;;;;;;;1.50;1.30;;;14.30;99.90;;;;;;4971025;28;20982;-87
2022/09/30 16:48:00;;;;;;;1.30;1.20;;;14.10;99.90;;;;;;4959205;28;20458;-87
2022/09/30 16:50:40;;;;;;;1.40;1.30;;;14.10;99.90;;;;;;4956196;28;20444;-87
2022/09/30 16:53:08;;;;;;;3.00;1.80;;;13.90;99.90;;;;;;4961064;28;21092;-87
2022/09/30 16:55:34;;;;;;;1.07;1.00;;;13.70;99.90;;;;;;4948318;28;20956;-87
2022/09/30 16:57:59;;;;;;;1.83;1.60;;;13.60;99.90;;;;;;4961029;28;20441;-87
2022/09/30 17:00:27;;;;;;;1.90;1.80;;;13.40;99.90;;;;;;4960438;28;20190;-85
2022/09/30 17:02:53;;;;;;;1.83;1.50;;;13.20;99.90;;;;;;4937447;28;20220;-85
2022/09/30 17:05:21;;;;;;;1.67;1.57;;;13.10;99.90;;;;;;4943581;28;21119;-85
2022/09/30 17:07:53;;;;;;;1.43;1.33;;;13.00;99.90;;;;;;4956077;28;20435;-86
2022/09/30 17:10:23;;;;;;;4.63;3.20;;;12.90;99.90;;;;;;4958183;28;20440;-86
2022/09/30 17:12:50;;;;;;;2.57;2.07;;;12.70;99.90;;;;;;4955967;28;20436;-87
2022/09/30 17:15:17;;;;;;;2.30;2.10;;;12.60;99.90;;;;;;4972062;28;21952;-89
2022/09/30 17:17:43;;;;;;;2.60;2.40;;;12.50;99.90;;;;;;4950078;28;21762;-88
2022/09/30 17:20:09;;;;;;;2.70;2.50;;;12.50;99.90;;;;;;4944104;28;20512;-88
2022/09/30 17:22:36;;;;;;;4.40;2.90;;;12.60;99.90;;;;;;4950107;28;20465;-88
2022/09/30 17:25:02;;;;;;;4.20;3.70;;;12.50;99.90;;;;;;4965894;28;20345;-85
2022/09/30 17:27:28;;;;;;;3.37;2.53;;;12.60;99.90;;;;;;4951447;28;20638;-85
2022/09/30 17:29:56;;;;;;;2.37;2.23;;;12.60;99.90;;;;;;4950025;28;20463;-87
2022/09/30 17:32:28;;;;;;;2.70;2.50;;;12.50;99.90;;;;;;4948296;28;20229;-87
2022/09/30 17:34:53;;;;;;;3.10;2.80;;;12.40;99.90;;;;;;4949488;28;20477;-89
2022/09/30 17:37:27;;;;;;;3.53;3.33;;;12.40;99.90;;;;;;4952086;28;20549;-88
2022/09/30 17:39:52;;;;;;;3.83;2.90;;;12.30;99.90;;;;;;4952921;28;20189;-88
2022/09/30 17:45:02;;;;;;;2.97;2.17;;;12.20;99.90;;;;;;4962251;28;20916;-88
2022/09/30 17:47:29;;;;;;;2.10;2.00;;;12.10;99.90;;;;;;4951652;28;20450;-88
2022/09/30 17:49:55;;;;;;;2.77;2.20;;;12.00;99.90;;;;;;4953869;28;20423;-89
2022/09/30 17:52:22;;;;;;;2.33;2.13;;;11.90;99.90;;;;;;4967759;28;22133;-88
2022/09/30 17:54:49;;;;;;;2.77;2.53;;;11.80;99.90;;;;;;4936992;28;20194;-89
2022/09/30 17:57:18;;;;;;;3.27;3.00;;;11.70;99.90;;;;;;4949572;28;20449;-89
2022/09/30 17:59:45;;;;;;;3.53;3.23;;;11.70;99.90;;;;;;4957075;28;20457;-88
2022/09/30 18:02:16;;;;;;;2.67;2.47;;;11.60;99.90;;;;;;4952287;28;21460;-85
2022/09/30 18:04:41;;;;;;;2.60;2.40;;;11.50;99.90;;;;;;4951973;28;20480;-89
2022/09/30 18:07:08;;;;;;;4.20;2.53;;;11.50;99.90;;;;;;4947444;28;20437;-86
2022/09/30 18:09:36;;;;;;;4.33;2.67;;;11.50;99.90;;;;;;4949786;28;20623;-87
2022/09/30 18:12:03;;;;;;;4.90;2.80;;;11.40;99.90;;;;;;4963945;28;20441;-87
2022/09/30 18:14:37;;;;;;;4.07;3.67;;;11.40;99.90;;;;;;4949846;28;21100;-88
2022/09/30 18:17:05;;;;;;;3.50;3.20;;;11.30;99.90;;;;;;4950018;28;20444;-88
2022/09/30 18:19:35;;;;;;;7.33;4.80;;;11.50;99.90;;;;;;4955995;28;20450;-89
2022/09/30 18:22:01;;;;;;;5.83;5.23;;;11.60;99.90;;;;;;4944610;28;20985;-88
2022/09/30 18:27:32;;;;;;;8.03;7.30;;;11.60;99.90;;;;;;4955955;28;21313;-86
2022/09/30 18:30:05;;;;;;;8.50;7.63;;;11.70;99.90;;;;;;4952206;28;21041;-87
2022/09/30 18:32:33;;;;;;;7.63;6.80;;;11.60;99.90;;;;;;4946837;28;20814;-87
2022/09/30 18:35:26;;;;;;;7.00;6.40;;;11.70;99.90;;;;;;4948770;28;21387;-87
2022/09/30 18:37:52;;;;;;;6.03;5.43;;;11.70;99.90;;;;;;4951089;28;20444;-87
2022/09/30 18:40:20;;;;;;;7.23;5.20;;;11.60;99.90;;;;;;4947394;28;20803;-87
2022/09/30 18:42:51;;;;;;;5.80;5.40;;;11.50;99.90;;;;;;4953716;28;20257;-86
2022/09/30 18:45:17;;;;;;;5.60;5.17;;;11.50;99.90;;;;;;4952637;28;20442;-87
2022/09/30 18:47:43;;;;;;;5.10;4.57;;;11.50;99.90;;;;;;4946246;28;20441;-86
2022/09/30 18:50:12;;;;;;;6.17;4.97;;;11.40;99.90;;;;;;4947039;28;20932;-88
2022/09/30 18:52:51;;;;;;;5.30;4.87;;;11.20;99.90;;;;;;4951182;28;20451;-88
2022/09/30 18:55:18;;;;;;;5.47;4.97;;;11.10;99.90;;;;;;4955133;28;20564;-88
2022/09/30 18:57:47;;;;;;;5.60;5.10;;;11.10;99.90;;;;;;4943902;28;20445;-85
2022/09/30 19:00:13;;;;;;;5.50;5.10;;;10.90;99.90;;;;;;4940563;28;20557;-86
2022/09/30 19:02:39;;;;;;;5.30;4.80;;;10.80;99.90;;;;;;4949153;28;20488;-86
2022/09/30 19:05:06;;;;;;;6.90;5.70;;;10.70;99.90;;;;;;4962905;28;20620;-86
2022/09/30 19:07:33;;;;;;;7.20;6.50;;;10.70;99.90;;;;;;4945829;28;20186;-87
2022/09/30 19:10:00;;;;;;;8.87;6.97;;;10.70;99.90;;;;;;4954337;28;20544;-87
2022/09/30 19:12:30;;;;;;;8.10;5.77;;;10.70;99.90;;;;;;4952961;28;20835;-86
2022/09/30 19:14:56;;;;;;;7.30;6.60;;;10.70;99.90;;;;;;4948684;28;20539;-87
2022/09/30 19:17:31;;;;;;;22.57;18.40;;;10.80;99.90;;;;;;4957215;28;20447;-86
2022/09/30 19:20:01;;;;;;;28.03;25.13;;;10.90;99.90;;;;;;4936526;28;20194;-86
2022/09/30 19:22:28;;;;;;;7.03;6.37;;;11.10;99.90;;;;;;4960784;28;20527;-84
2022/09/30 19:24:54;;;;;;;7.90;7.07;;;11.20;99.90;;;;;;4949220;28;20467;-86
2022/09/30 19:27:25;;;;;;;8.33;7.33;;;11.30;99.90;;;;;;4946305;28;20971;-86
2022/09/30 19:29:52;;;;;;;47.47;41.83;;;11.30;99.90;;;;;;4945225;28;20198;-87
2022/09/30 19:32:20;;;;;;;189.17;170.10;;;11.30;99.90;;;;;;4951124;28;21705;-88
2022/09/30 19:34:54;;;;;;;7.67;6.97;;;11.30;99.90;;;;;;4939317;28;20449;-86
2022/09/30 19:37:19;;;;;;;7.60;6.83;;;11.30;99.90;;;;;;4946083;28;20445;-85
2022/09/30 19:39:45;;;;;;;15.77;12.87;;;11.20;99.90;;;;;;4955963;28;20901;-87
2022/09/30 19:42:17;;;;;;;88.70;80.13;;;11.10;99.90;;;;;;4954109;28;20186;-86
2022/09/30 19:44:45;;;;;;;16.63;13.27;;;11.10;99.90;;;;;;4957738;28;20680;-86
2022/09/30 19:47:11;;;;;;;12.33;11.03;;;11.10;99.90;;;;;;4969647;28;20996;-86
2022/09/30 19:49:36;;;;;;;12.70;11.40;;;11.20;99.90;;;;;;4958998;28;21148;-85
2022/09/30 19:52:05;;;;;;;28.93;23.63;;;11.20;99.90;;;;;;4952619;28;20292;-87
2022/09/30 19:54:31;;;;;;;25.87;21.20;;;11.30;99.90;;;;;;4951790;28;20696;-88
2022/09/30 19:56:56;;;;;;;10.90;9.83;;;11.40;99.90;;;;;;4958940;28;20451;-87
2022/09/30 19:59:22;;;;;;;11.47;10.40;;;11.40;99.90;;;;;;4959394;28;20190;-86
2022/09/30 20:01:47;;;;;;;8.73;7.93;;;11.40;99.90;;;;;;4959357;28;20189;-87
2022/09/30 20:04:15;;;;;;;22.73;20.33;;;11.40;99.90;;;;;;4989235;28;20217;-87
2022/09/30 20:06:41;;;;;;;36.60;32.90;;;11.30;99.90;;;;;;4969683;28;20186;-88
2022/09/30 20:09:07;;;;;;;10.57;9.37;;;11.30;99.90;;;;;;4970537;28;20520;-86
2022/09/30 20:11:35;;;;;;;7.87;6.70;;;11.10;99.90;;;;;;4965062;28;20904;-87
2022/09/30 20:16:48;;;;;;;20.43;17.57;;;11.10;99.90;;;;;;4958198;28;20444;-85
2022/09/30 20:19:15;;;;;;;8.20;7.30;;;11.00;99.90;;;;;;4955995;28;20449;-88
2022/09/30 20:21:40;;;;;;;12.40;6.60;;;11.00;99.90;;;;;;4951537;28;20536;-87
2022/09/30 20:24:13;;;;;;;8.67;7.60;;;10.90;99.90;;;;;;4947320;28;20479;-86
2022/09/30 20:26:39;;;;;;;7.93;7.13;;;10.80;99.90;;;;;;4960774;28;20273;-87
2022/09/30 20:29:08;;;;;;;6.90;6.30;;;10.80;99.90;;;;;;4966426;28;20449;-87
2022/09/30 20:31:35;;;;;;;8.37;7.40;;;10.70;99.90;;;;;;4972561;28;20457;-87
2022/09/30 20:34:01;;;;;;;7.53;6.03;;;10.50;99.90;;;;;;4966232;28;20933;-87
2022/09/30 20:36:29;;;;;;;33.93;30.23;;;10.30;99.90;;;;;;4971455;28;20438;-88
2022/09/30 20:39:01;;;;;;;12.03;10.93;;;10.20;99.90;;;;;;4980339;28;21491;-88
2022/09/30 20:41:29;;;;;;;7.77;6.07;;;10.30;99.90;;;;;;4971188;28;20471;-88
2022/09/30 20:43:55;;;;;;;39.03;30.70;;;10.30;99.90;;;;;;4978655;28;20626;-89
2022/09/30 20:46:22;;;;;;;45.10;40.47;;;10.30;99.90;;;;;;4981661;28;20453;-87
2022/09/30 20:48:49;;;;;;;7.43;6.73;;;10.40;99.90;;;;;;4992393;28;20445;-87
2022/09/30 20:51:17;;;;;;;7.00;6.40;;;10.40;99.90;;;;;;4993762;28;20504;-87
2022/09/30 20:53:44;;;;;;;7.60;6.70;;;10.40;99.90;;;;;;4998728;28;24510;-87
2022/09/30 20:56:13;;;;;;;8.80;7.10;;;10.40;99.90;;;;;;4978231;28;20444;-88